createdAt,value
2023-07-02T00:06:41.395Z,18.90
2023-07-02T00:13:24.121Z,18.70
2023-07-02T00:20:18.697Z,18.60
2023-07-02T00:27:01.327Z,18.50
2023-07-02T00:33:45.118Z,18.40
2023-07-02T00:40:28.744Z,18.40
2023-07-02T00:47:12.555Z,18.40
2023-07-02T00:53:59.330Z,18.60
2023-07-02T01:00:43.742Z,18.60
2023-07-02T01:07:26.912Z,18.70
2023-07-02T01:14:13.536Z,18.60
2023-07-02T01:20:56.199Z,18.70
2023-07-02T01:27:38.914Z,18.60
2023-07-02T01:34:23.373Z,18.70
2023-07-02T01:41:06.096Z,18.60
2023-07-02T01:47:48.724Z,18.40
2023-07-02T01:54:33.061Z,18.30
2023-07-02T02:01:15.673Z,18.40
2023-07-02T02:07:58.292Z,18.40
2023-07-02T02:14:40.903Z,18.40
2023-07-02T02:21:23.665Z,18.40
2023-07-02T02:28:06.220Z,18.20
2023-07-02T02:34:49.339Z,18.40
2023-07-02T02:41:32.472Z,18.50
2023-07-02T02:48:16.179Z,18.50
2023-07-02T02:54:59.490Z,18.40
2023-07-02T03:01:42.198Z,18.40
2023-07-02T03:08:24.820Z,18.50
2023-07-02T03:15:08.103Z,18.60
2023-07-02T03:21:50.901Z,18.60
2023-07-02T03:28:35.975Z,18.50
2023-07-02T03:35:18.800Z,18.20
2023-07-02T03:42:01.361Z,17.80
2023-07-02T03:48:43.969Z,17.50
2023-07-02T03:55:26.545Z,17.20
2023-07-02T04:02:09.223Z,17.40
2023-07-02T04:08:52.216Z,17.50
2023-07-02T04:15:35.301Z,17.60
2023-07-02T04:22:19.284Z,17.60
2023-07-02T04:29:01.905Z,17.80
2023-07-02T04:35:44.620Z,17.70
2023-07-02T04:42:32.842Z,17.70
2023-07-02T04:49:15.981Z,17.80
2023-07-02T04:55:59.231Z,18.00
2023-07-02T05:02:42.086Z,18.20
2023-07-02T05:09:24.756Z,18.70
2023-07-02T05:16:07.443Z,18.70
2023-07-02T05:22:50.188Z,19.10
2023-07-02T05:29:32.895Z,19.40
2023-07-02T05:36:15.928Z,19.40
2023-07-02T05:42:58.496Z,19.60
2023-07-02T05:49:43.743Z,19.70
2023-07-02T05:56:26.291Z,22.60
2023-07-02T06:03:09.115Z,26.40
2023-07-02T06:09:51.956Z,28.50
2023-07-02T06:16:34.795Z,27.50
2023-07-02T06:23:17.506Z,28.20
2023-07-02T06:30:00.095Z,29.20
2023-07-02T06:36:43.413Z,29.20
2023-07-02T06:43:25.982Z,26.80
2023-07-02T06:50:08.914Z,24.60
2023-07-02T06:56:51.676Z,23.70
2023-07-02T07:03:34.316Z,23.30
2023-07-02T07:10:16.976Z,23.80
2023-07-02T07:16:59.588Z,25.20
2023-07-02T07:23:42.198Z,24.80
2023-07-02T07:30:24.860Z,24.90
2023-07-02T07:37:07.548Z,25.20
2023-07-02T07:43:51.198Z,27.80
2023-07-02T07:50:34.027Z,29.60
2023-07-02T07:57:18.067Z,27.00
2023-07-02T08:04:00.699Z,26.90
2023-07-02T08:10:43.482Z,28.70
2023-07-02T08:17:26.164Z,27.80
2023-07-02T08:24:08.970Z,28.40
2023-07-02T08:30:51.671Z,28.30
2023-07-02T08:37:34.403Z,29.70
2023-07-02T08:44:21.489Z,30.60
2023-07-02T08:51:04.466Z,31.60
2023-07-02T08:57:51.166Z,32.40
2023-07-02T09:04:33.847Z,34.00
2023-07-02T09:11:21.110Z,33.70
2023-07-02T09:18:03.883Z,34.50
2023-07-02T09:24:58.957Z,35.40
2023-07-02T09:31:59.640Z,32.80
2023-07-02T09:38:46.711Z,34.00
2023-07-02T09:45:29.341Z,34.60
2023-07-02T09:52:13.053Z,33.80
2023-07-02T09:58:55.737Z,33.90
2023-07-02T10:05:38.838Z,32.70
2023-07-02T10:12:31.070Z,34.00
2023-07-02T10:19:14.472Z,32.40
2023-07-02T10:25:57.078Z,30.60
2023-07-02T10:32:40.059Z,28.10
2023-07-02T10:39:22.713Z,29.70
2023-07-02T10:46:06.228Z,32.10
2023-07-02T10:52:51.674Z,32.80
2023-07-02T10:59:34.722Z,32.20
2023-07-02T11:06:17.371Z,30.50
2023-07-02T11:12:59.953Z,29.40
2023-07-02T11:19:42.527Z,27.90
2023-07-02T11:26:35.383Z,27.20
2023-07-02T11:33:17.998Z,26.70
2023-07-02T11:40:00.629Z,26.90
2023-07-02T11:46:43.276Z,27.00
2023-07-02T11:53:26.298Z,26.90
2023-07-02T12:00:09.332Z,27.00
2023-07-02T12:06:52.885Z,27.00
2023-07-02T12:13:35.570Z,27.00
2023-07-02T12:20:18.340Z,26.90
2023-07-02T12:27:00.934Z,26.80
2023-07-02T12:33:43.559Z,27.00
2023-07-02T12:40:26.307Z,26.60
2023-07-02T12:47:09.796Z,26.30
2023-07-02T12:53:52.383Z,26.40
2023-07-02T13:00:35.626Z,26.10
2023-07-02T13:07:18.450Z,26.10
2023-07-02T13:14:01.163Z,26.10
2023-07-02T13:20:43.743Z,26.50
2023-07-02T13:27:27.177Z,26.80
2023-07-02T13:34:09.769Z,26.40
2023-07-02T13:40:52.360Z,26.50
2023-07-02T13:47:35.038Z,26.70
2023-07-02T13:54:19.620Z,26.50
2023-07-02T14:01:02.441Z,26.60
2023-07-02T14:07:45.690Z,26.70
2023-07-02T14:14:28.365Z,26.40
2023-07-02T14:21:10.962Z,26.60
2023-07-02T14:27:53.673Z,26.60
2023-07-02T14:34:36.483Z,26.70
2023-07-02T14:41:19.198Z,26.60
2023-07-02T14:48:01.931Z,27.00
2023-07-02T14:54:44.583Z,27.10
2023-07-02T15:01:27.266Z,26.90
2023-07-02T15:08:11.026Z,27.00
2023-07-02T15:14:53.617Z,27.10
2023-07-02T15:21:36.195Z,27.00
2023-07-02T15:28:19.542Z,27.30
2023-07-02T15:35:02.179Z,27.50
2023-07-02T15:41:44.742Z,27.30
2023-07-02T15:48:27.375Z,27.20
2023-07-02T15:55:09.996Z,26.90
2023-07-02T16:01:52.657Z,26.80
2023-07-02T16:08:35.673Z,26.60
2023-07-02T16:15:18.405Z,26.90
2023-07-02T16:22:01.652Z,27.00
2023-07-02T16:28:44.302Z,27.10
2023-07-02T16:35:26.911Z,26.80
2023-07-02T16:42:09.674Z,26.80
2023-07-02T16:48:52.426Z,26.90
2023-07-02T16:55:39.997Z,26.70
2023-07-02T17:02:22.765Z,26.70
2023-07-02T17:09:22.208Z,26.40
2023-07-02T17:16:05.995Z,26.50
2023-07-02T17:22:48.649Z,26.30
2023-07-02T17:29:32.545Z,26.20
2023-07-02T17:36:18.137Z,26.00
2023-07-02T17:43:00.896Z,25.90
2023-07-02T17:49:46.110Z,25.90
2023-07-02T17:56:29.240Z,25.80
2023-07-02T18:03:11.913Z,25.60
2023-07-02T18:09:54.903Z,25.40
2023-07-02T18:16:37.679Z,24.90
2023-07-02T18:23:21.005Z,24.80
2023-07-02T18:30:04.824Z,24.50
2023-07-02T18:36:50.029Z,24.40
2023-07-02T18:43:36.941Z,24.30
2023-07-02T18:50:19.551Z,24.10
2023-07-02T18:57:06.549Z,23.90
2023-07-02T19:03:49.324Z,23.70
2023-07-02T19:10:32.030Z,23.50
2023-07-02T19:17:16.298Z,23.30
2023-07-02T19:24:00.002Z,23.30
2023-07-02T19:30:42.654Z,23.00
2023-07-02T19:37:25.662Z,22.80
2023-07-02T19:44:08.731Z,22.70
2023-07-02T19:51:02.748Z,22.40
2023-07-02T19:57:45.496Z,22.20
2023-07-02T20:04:30.755Z,22.10
2023-07-02T20:11:13.480Z,21.90
2023-07-02T20:17:56.190Z,21.70
2023-07-02T20:24:38.781Z,21.60
2023-07-02T20:31:21.568Z,21.50
2023-07-02T20:38:04.698Z,21.40
2023-07-02T20:44:50.512Z,21.40
2023-07-02T20:51:34.508Z,21.30
2023-07-02T20:58:17.219Z,21.20
2023-07-02T21:04:59.788Z,21.20
2023-07-02T21:11:42.404Z,21.10
2023-07-02T21:18:26.000Z,21.10
2023-07-02T21:25:09.556Z,21.00
2023-07-02T21:31:52.395Z,20.90
2023-07-02T21:38:38.386Z,20.70
2023-07-02T21:45:21.396Z,20.60
2023-07-02T21:52:04.225Z,20.60
2023-07-02T21:58:49.315Z,20.40
2023-07-02T22:05:32.390Z,20.30
2023-07-02T22:12:14.986Z,20.20
2023-07-02T22:18:57.547Z,20.00
2023-07-02T22:25:43.448Z,19.70
2023-07-02T22:32:26.235Z,19.50
2023-07-02T22:39:08.902Z,19.30
2023-07-02T22:45:52.090Z,19.20
2023-07-02T22:52:36.175Z,19.10
2023-07-02T22:59:18.785Z,19.00
2023-07-02T23:06:01.709Z,18.90
2023-07-02T23:12:46.492Z,18.80
2023-07-02T23:19:30.148Z,18.70
2023-07-02T23:26:19.173Z,18.70
2023-07-02T23:33:06.895Z,18.50
2023-07-02T23:39:52.485Z,18.40
2023-07-02T23:46:35.732Z,18.40
2023-07-02T23:53:18.413Z,18.30
